createdAt,value
2018-01-15T00:02:03.320Z,19.90
2018-01-15T00:04:34.686Z,21.13
2018-01-15T00:07:04.197Z,18.97
2018-01-15T00:09:35.205Z,19.53
2018-01-15T00:12:05.578Z,19.60
2018-01-15T00:14:34.841Z,19.57
2018-01-15T00:17:04.597Z,40.33
2018-01-15T00:19:33.996Z,20.60
2018-01-15T00:22:03.690Z,19.57
2018-01-15T00:24:32.771Z,20.77
2018-01-15T00:27:02.195Z,20.87
2018-01-15T00:29:31.311Z,21.10
2018-01-15T00:32:00.472Z,20.30
2018-01-15T00:34:30.972Z,21.47
2018-01-15T00:37:00.194Z,20.30
2018-01-15T00:39:29.323Z,22.17
2018-01-15T00:41:58.498Z,21.50
2018-01-15T00:44:27.728Z,19.23
2018-01-15T00:46:57.232Z,18.77
2018-01-15T00:49:26.362Z,19.20
2018-01-15T00:51:55.794Z,19.00
2018-01-15T00:54:25.394Z,18.90
2018-01-15T00:56:54.764Z,20.33
2018-01-15T00:59:23.863Z,19.80
2018-01-15T01:01:53.277Z,20.77
2018-01-15T01:04:22.362Z,21.30
2018-01-15T01:06:51.499Z,20.50
2018-01-15T01:09:20.895Z,24.57
2018-01-15T01:11:50.153Z,23.00
2018-01-15T01:14:20.107Z,22.73
2018-01-15T01:16:49.588Z,21.67
2018-01-15T01:19:18.693Z,23.30
2018-01-15T01:21:48.558Z,20.70
2018-01-15T01:24:18.025Z,20.10
2018-01-15T01:26:47.141Z,18.73
2018-01-15T01:29:16.624Z,18.07
2018-01-15T01:31:46.022Z,17.50
2018-01-15T01:34:15.262Z,18.77
2018-01-15T01:36:44.350Z,17.90
2018-01-15T01:39:13.858Z,20.50
2018-01-15T01:41:43.011Z,20.10
2018-01-15T01:44:12.166Z,17.90
2018-01-15T01:46:41.571Z,19.10
2018-01-15T01:49:10.672Z,18.10
2018-01-15T01:51:39.795Z,20.97
2018-01-15T01:54:09.302Z,19.93
2018-01-15T01:56:38.405Z,21.57
2018-01-15T01:59:07.550Z,20.40
2018-01-15T02:01:36.985Z,22.57
2018-01-15T02:04:07.349Z,21.63
2018-01-15T02:06:36.740Z,21.30
2018-01-15T02:09:06.628Z,23.20
2018-01-15T02:11:35.762Z,24.10
2018-01-15T02:14:05.790Z,21.77
2018-01-15T02:16:35.011Z,19.80
2018-01-15T02:19:04.148Z,21.33
2018-01-15T02:21:33.849Z,19.80
2018-01-15T02:24:04.032Z,19.70
2018-01-15T02:26:33.383Z,20.53
2018-01-15T02:29:02.813Z,21.67
2018-01-15T02:31:31.985Z,18.50
2018-01-15T02:34:01.867Z,19.67
2018-01-15T02:36:31.025Z,19.53
2018-01-15T02:39:00.139Z,21.23
2018-01-15T02:41:29.531Z,21.23
2018-01-15T02:43:58.643Z,19.97
2018-01-15T02:46:27.734Z,20.27
2018-01-15T02:48:57.140Z,20.17
2018-01-15T02:51:26.270Z,20.00
2018-01-15T02:53:55.384Z,19.83
2018-01-15T02:56:24.785Z,20.00
2018-01-15T02:58:53.910Z,19.70
2018-01-15T03:01:27.212Z,21.43
2018-01-15T03:03:56.719Z,20.43
2018-01-15T03:06:25.823Z,20.10
2018-01-15T03:08:55.367Z,22.00
2018-01-15T03:11:24.834Z,20.23
2018-01-15T03:13:53.933Z,21.80
2018-01-15T03:16:23.034Z,21.80
2018-01-15T03:18:52.139Z,21.27
2018-01-15T03:21:21.667Z,20.50
2018-01-15T03:23:51.080Z,22.30
2018-01-15T03:26:20.206Z,22.13
2018-01-15T03:28:49.359Z,23.97
2018-01-15T03:31:18.750Z,22.37
2018-01-15T03:33:47.858Z,21.57
2018-01-15T03:36:16.969Z,23.07
2018-01-15T03:38:46.396Z,23.03
2018-01-15T03:41:15.550Z,23.83
2018-01-15T03:43:44.700Z,22.07
2018-01-15T03:46:14.300Z,23.30
2018-01-15T03:48:43.417Z,25.20
2018-01-15T03:51:12.582Z,23.50
2018-01-15T03:53:41.998Z,23.77
2018-01-15T03:56:11.129Z,24.60
2018-01-15T03:58:40.212Z,26.50
2018-01-15T04:01:09.334Z,23.73
2018-01-15T04:03:38.423Z,22.83
2018-01-15T04:06:07.822Z,22.53
2018-01-15T04:08:36.932Z,23.90
2018-01-15T04:11:06.035Z,23.07
2018-01-15T04:13:35.472Z,22.90
2018-01-15T04:16:05.373Z,23.03
2018-01-15T04:18:34.503Z,22.60
2018-01-15T04:21:04.211Z,23.77
2018-01-15T04:23:33.387Z,21.50
2018-01-15T04:26:03.247Z,22.37
2018-01-15T04:28:32.637Z,21.97
2018-01-15T04:31:01.976Z,21.63
2018-01-15T04:33:31.066Z,21.27
2018-01-15T04:36:00.604Z,19.80
2018-01-15T04:38:29.682Z,21.87
2018-01-15T04:41:00.034Z,21.50
2018-01-15T04:43:29.451Z,23.00
2018-01-15T04:45:58.577Z,22.90
2018-01-15T04:48:27.779Z,19.90
2018-01-15T04:50:57.452Z,24.03
2018-01-15T04:53:26.633Z,24.40
2018-01-15T04:55:57.142Z,24.60
2018-01-15T04:58:26.333Z,24.57
2018-01-15T05:00:55.637Z,23.20
2018-01-15T05:03:24.832Z,22.50
2018-01-15T05:05:54.210Z,22.60
2018-01-15T05:08:28.858Z,22.93
2018-01-15T05:10:58.071Z,22.00
2018-01-15T05:13:27.305Z,22.80
2018-01-15T05:15:56.896Z,23.97
2018-01-15T05:18:26.093Z,24.20
2018-01-15T05:20:55.202Z,22.67
2018-01-15T05:23:24.694Z,24.80
2018-01-15T05:25:53.839Z,25.17
2018-01-15T05:28:22.981Z,25.47
2018-01-15T05:30:53.452Z,22.20
2018-01-15T05:33:22.612Z,25.27
2018-01-15T05:35:51.759Z,23.53
2018-01-15T05:38:21.636Z,22.30
2018-01-15T05:40:51.246Z,21.23
2018-01-15T05:43:20.402Z,22.73
2018-01-15T05:45:51.692Z,22.87
2018-01-15T05:48:21.012Z,21.40
2018-01-15T05:50:51.137Z,22.77
2018-01-15T05:53:20.604Z,24.13
2018-01-15T05:55:49.926Z,23.53
2018-01-15T05:58:19.115Z,21.70
2018-01-15T06:00:50.885Z,22.97
2018-01-15T06:03:20.079Z,22.10
2018-01-15T06:05:49.360Z,21.77
2018-01-15T06:08:18.474Z,23.40
2018-01-15T06:10:47.674Z,23.60
2018-01-15T06:13:17.766Z,21.40
2018-01-15T06:15:46.967Z,22.30
2018-01-15T06:18:16.141Z,22.30
2018-01-15T06:20:46.605Z,22.60
2018-01-15T06:23:15.999Z,22.10
2018-01-15T06:25:45.176Z,23.67
2018-01-15T06:28:14.763Z,21.23
2018-01-15T06:30:44.105Z,22.27
2018-01-15T06:33:13.352Z,27.60
2018-01-15T06:35:42.531Z,43.70
2018-01-15T06:38:11.830Z,22.80
2018-01-15T06:40:41.261Z,22.20
2018-01-15T06:43:10.379Z,22.87
2018-01-15T06:45:39.656Z,20.90
2018-01-15T06:48:09.558Z,21.60
2018-01-15T06:50:38.730Z,21.67
2018-01-15T06:53:08.152Z,23.20
2018-01-15T06:55:37.306Z,21.87
2018-01-15T06:58:06.602Z,21.57
2018-01-15T07:00:35.757Z,22.07
2018-01-15T07:03:05.183Z,20.70
2018-01-15T07:05:34.358Z,21.00
2018-01-15T07:08:04.730Z,22.10
2018-01-15T07:10:33.885Z,20.97
2018-01-15T07:13:04.263Z,22.50
2018-01-15T07:15:33.730Z,23.93
2018-01-15T07:18:04.195Z,22.90
2018-01-15T07:20:33.411Z,21.60
2018-01-15T07:23:03.138Z,22.20
2018-01-15T07:25:32.259Z,23.17
2018-01-15T07:28:01.798Z,21.80
2018-01-15T07:30:31.250Z,21.77
2018-01-15T07:33:02.051Z,21.97
2018-01-15T07:35:31.200Z,22.17
2018-01-15T07:38:02.866Z,21.60
2018-01-15T07:40:32.114Z,20.60
2018-01-15T07:43:02.100Z,23.87
2018-01-15T07:45:31.552Z,23.77
2018-01-15T07:48:01.060Z,23.57
2018-01-15T07:50:30.219Z,23.43
2018-01-15T07:52:59.340Z,25.00
2018-01-15T07:55:28.503Z,22.93
2018-01-15T07:57:58.857Z,23.97
2018-01-15T08:00:27.951Z,24.90
2018-01-15T08:02:57.081Z,23.90
2018-01-15T08:05:26.596Z,23.43
2018-01-15T08:07:55.716Z,22.57
2018-01-15T08:10:24.896Z,23.67
2018-01-15T08:12:54.301Z,22.97
2018-01-15T08:15:23.493Z,23.90
2018-01-15T08:17:53.538Z,24.60
2018-01-15T08:20:22.934Z,23.87
2018-01-15T08:22:52.057Z,22.83
2018-01-15T08:25:21.510Z,23.83
2018-01-15T08:27:50.714Z,23.73
2018-01-15T08:30:19.815Z,24.50
2018-01-15T08:32:49.053Z,23.00
2018-01-15T08:35:18.198Z,21.53
2018-01-15T08:37:47.657Z,24.70
2018-01-15T08:40:17.338Z,21.30
2018-01-15T08:42:46.455Z,24.60
2018-01-15T08:45:15.595Z,23.70
2018-01-15T08:47:44.758Z,23.13
2018-01-15T08:50:14.238Z,24.43
2018-01-15T08:52:43.368Z,24.57
2018-01-15T08:55:12.555Z,25.10
2018-01-15T08:57:42.063Z,23.50
2018-01-15T09:00:11.303Z,24.17
2018-01-15T09:02:40.477Z,24.73
2018-01-15T09:05:11.397Z,23.10
2018-01-15T09:07:40.703Z,24.90
2018-01-15T09:10:09.895Z,24.57
2018-01-15T09:12:39.377Z,24.30
2018-01-15T09:15:08.508Z,25.10
2018-01-15T09:17:38.564Z,24.63
2018-01-15T09:20:07.993Z,25.37
2018-01-15T09:22:37.138Z,24.30
2018-01-15T09:25:06.266Z,24.40
2018-01-15T09:27:35.720Z,25.67
2018-01-15T09:30:06.669Z,22.10
2018-01-15T09:32:35.792Z,22.63
2018-01-15T09:35:05.510Z,23.47
2018-01-15T09:37:34.630Z,23.70
2018-01-15T09:40:05.561Z,22.43
2018-01-15T09:42:34.982Z,22.50
2018-01-15T09:45:05.005Z,22.90
2018-01-15T09:47:34.148Z,23.90
2018-01-15T09:50:04.470Z,24.33
2018-01-15T09:52:33.694Z,23.40
2018-01-15T09:55:04.147Z,26.23
2018-01-15T09:57:33.578Z,21.80
2018-01-15T10:00:04.680Z,23.80
2018-01-15T10:02:33.816Z,22.50
2018-01-15T10:05:03.907Z,24.03
2018-01-15T10:07:33.075Z,22.37
2018-01-15T10:10:03.991Z,22.17
2018-01-15T10:12:33.410Z,22.20
2018-01-15T10:15:02.847Z,23.97
2018-01-15T10:17:31.977Z,23.10
2018-01-15T10:20:02.791Z,23.37
2018-01-15T10:22:31.945Z,23.70
2018-01-15T10:25:01.467Z,22.53
2018-01-15T10:27:30.892Z,22.27
2018-01-15T10:30:00.085Z,26.00
2018-01-15T10:32:29.226Z,23.50
2018-01-15T10:34:58.687Z,21.90
2018-01-15T10:37:27.859Z,21.83
2018-01-15T10:39:57.003Z,23.93
2018-01-15T10:42:26.552Z,21.83
2018-01-15T10:44:55.675Z,24.33
2018-01-15T10:47:24.846Z,23.20
2018-01-15T10:49:54.466Z,23.00
2018-01-15T10:52:23.628Z,21.83
2018-01-15T10:54:52.848Z,22.90
2018-01-15T10:57:22.350Z,24.17
2018-01-15T10:59:52.945Z,22.90
2018-01-15T11:02:22.066Z,24.03
2018-01-15T11:04:51.636Z,22.73
2018-01-15T11:07:20.783Z,22.43
2018-01-15T11:09:50.694Z,21.93
2018-01-15T11:12:20.115Z,21.77
2018-01-15T11:14:49.358Z,21.30
2018-01-15T11:17:18.678Z,20.47
2018-01-15T11:19:48.346Z,21.37
2018-01-15T11:22:17.504Z,24.50
2018-01-15T11:24:46.651Z,22.30
2018-01-15T11:27:16.063Z,23.67
2018-01-15T11:29:45.188Z,20.90
2018-01-15T11:32:14.314Z,21.40
2018-01-15T11:34:43.740Z,21.20
2018-01-15T11:37:12.927Z,21.50
2018-01-15T11:39:42.118Z,21.20
2018-01-15T11:42:11.278Z,20.67
2018-01-15T11:44:40.570Z,22.73
2018-01-15T11:47:09.774Z,21.90
2018-01-15T11:49:39.177Z,20.53
2018-01-15T11:52:08.446Z,20.67
2018-01-15T11:54:37.569Z,20.30
2018-01-15T11:57:07.017Z,21.07
2018-01-15T11:59:36.214Z,20.17
2018-01-15T12:02:06.387Z,20.90
2018-01-15T12:04:35.825Z,18.90
2018-01-15T12:07:05.466Z,18.60
2018-01-15T12:09:34.596Z,22.13
2018-01-15T12:12:04.945Z,22.10
2018-01-15T12:14:34.083Z,19.90
2018-01-15T12:17:03.454Z,20.03
2018-01-15T12:19:32.940Z,20.33
2018-01-15T12:22:02.805Z,21.73
2018-01-15T12:24:31.988Z,20.90
2018-01-15T12:27:04.039Z,20.93
2018-01-15T12:29:33.188Z,23.40
2018-01-15T12:32:03.148Z,20.63
2018-01-15T12:34:32.638Z,20.50
2018-01-15T12:37:02.118Z,20.03
2018-01-15T12:39:31.358Z,20.90
2018-01-15T12:42:02.471Z,21.23
2018-01-15T12:44:31.585Z,20.60
2018-01-15T12:47:01.956Z,19.90
2018-01-15T12:49:31.167Z,19.87
2018-01-15T12:52:00.306Z,20.23
2018-01-15T12:54:29.452Z,19.43
2018-01-15T12:57:00.176Z,22.57
2018-01-15T12:59:29.715Z,20.60
2018-01-15T13:01:59.706Z,19.20
2018-01-15T13:04:28.903Z,20.50
2018-01-15T13:06:58.951Z,20.73
2018-01-15T13:09:28.108Z,21.83
2018-01-15T13:11:57.570Z,19.97
2018-01-15T13:14:26.770Z,19.23
2018-01-15T13:16:56.987Z,18.27
2018-01-15T13:19:26.539Z,20.07
2018-01-15T13:21:55.714Z,21.17
2018-01-15T13:24:24.877Z,20.50
2018-01-15T13:26:55.357Z,18.90
2018-01-15T13:29:24.568Z,18.60
2018-01-15T13:31:53.708Z,19.90
2018-01-15T13:34:23.125Z,20.23
2018-01-15T13:36:52.285Z,18.33
2018-01-15T13:39:21.414Z,18.90
2018-01-15T13:41:51.950Z,19.30
2018-01-15T13:44:21.067Z,17.03
2018-01-15T13:46:51.679Z,18.50
2018-01-15T13:49:21.251Z,19.23
2018-01-15T13:51:52.221Z,19.47
2018-01-15T13:54:21.426Z,18.67
2018-01-15T13:56:52.020Z,18.77
2018-01-15T13:59:21.190Z,20.13
2018-01-15T14:01:52.050Z,20.80
2018-01-15T14:04:22.139Z,19.40
2018-01-15T14:06:51.710Z,18.50
2018-01-15T14:09:21.270Z,19.37
2018-01-15T14:11:50.997Z,18.80
2018-01-15T14:14:20.417Z,16.90
2018-01-15T14:16:50.759Z,19.00
2018-01-15T14:19:21.772Z,19.37
2018-01-15T14:21:51.819Z,17.60
2018-01-15T14:24:21.556Z,17.60
2018-01-15T14:26:51.750Z,17.83
2018-01-15T14:29:21.234Z,17.97
2018-01-15T14:31:50.864Z,17.90
2018-01-15T14:34:20.474Z,16.97
2018-01-15T14:36:49.792Z,17.30
2018-01-15T14:39:19.847Z,16.00
2018-01-15T14:41:49.835Z,19.83
2018-01-15T14:44:19.231Z,17.07
2018-01-15T14:46:48.941Z,29.43
2018-01-15T14:49:18.664Z,16.40
2018-01-15T14:51:48.094Z,17.20
2018-01-15T14:54:18.160Z,17.77
2018-01-15T14:56:47.604Z,17.80
2018-01-15T14:59:16.960Z,18.30
2018-01-15T15:01:46.502Z,18.50
2018-01-15T15:04:16.045Z,16.30
2018-01-15T15:06:45.165Z,17.03
2018-01-15T15:09:14.636Z,15.60
2018-01-15T15:11:43.995Z,16.20
2018-01-15T15:14:13.117Z,16.03
2018-01-15T15:16:44.274Z,17.97
2018-01-15T15:19:14.778Z,16.53
2018-01-15T15:21:44.581Z,16.13
2018-01-15T15:24:14.912Z,16.60
2018-01-15T15:26:44.729Z,15.63
2018-01-15T15:29:14.535Z,15.83
2018-01-15T15:31:44.769Z,16.20
2018-01-15T15:34:15.433Z,16.20
2018-01-15T15:36:45.421Z,14.40
2018-01-15T15:39:15.612Z,15.80
2018-01-15T15:41:45.611Z,15.27
2018-01-15T15:44:15.281Z,15.47
2018-01-15T15:46:44.941Z,16.70
2018-01-15T15:49:14.902Z,16.83
2018-01-15T15:51:44.347Z,17.03
2018-01-15T15:54:15.782Z,15.60
2018-01-15T15:56:46.394Z,15.60
2018-01-15T15:59:17.068Z,16.50
2018-01-15T16:01:46.323Z,17.33
2018-01-15T16:04:15.727Z,18.00
2018-01-15T16:06:45.206Z,18.27
2018-01-15T16:09:14.587Z,16.80
2018-01-15T16:11:43.741Z,17.47
2018-01-15T16:14:13.194Z,19.13
2018-01-15T16:16:42.512Z,17.90
2018-01-15T16:19:12.788Z,18.43
2018-01-15T16:21:43.280Z,18.33
2018-01-15T16:24:13.222Z,19.13
2018-01-15T16:26:42.376Z,18.80
2018-01-15T16:29:11.875Z,18.97
2018-01-15T16:31:41.124Z,18.47
2018-01-15T16:34:10.348Z,19.33
2018-01-15T16:36:39.559Z,17.40
2018-01-15T16:39:08.733Z,17.97
2018-01-15T16:41:38.334Z,17.93
2018-01-15T16:44:08.791Z,33.40
2018-01-15T16:46:38.399Z,19.70
2018-01-15T16:49:08.063Z,18.50
2018-01-15T16:51:37.633Z,16.27
2018-01-15T16:54:07.116Z,17.73
2018-01-15T16:56:36.355Z,18.70
2018-01-15T16:59:06.240Z,18.10
2018-01-15T17:01:35.878Z,17.90
2018-01-15T17:04:06.774Z,17.33
2018-01-15T17:06:36.151Z,17.07
2018-01-15T17:09:05.747Z,16.80
2018-01-15T17:11:35.019Z,15.70
2018-01-15T17:14:05.332Z,18.60
2018-01-15T17:16:34.592Z,16.13
2018-01-15T17:19:05.094Z,15.97
2018-01-15T17:21:36.752Z,16.93
2018-01-15T17:24:06.870Z,17.63
2018-01-15T17:26:35.996Z,17.90
2018-01-15T17:29:05.532Z,18.00
2018-01-15T17:31:34.853Z,15.63
2018-01-15T17:34:05.548Z,17.07
2018-01-15T17:36:34.858Z,17.47
2018-01-15T17:39:05.828Z,16.23
2018-01-15T17:41:35.150Z,15.77
2018-01-15T17:44:06.825Z,17.80
2018-01-15T17:46:37.305Z,17.77
2018-01-15T17:49:06.659Z,16.20
2018-01-15T17:51:36.193Z,15.10
2018-01-15T17:54:06.249Z,15.97
2018-01-15T17:56:35.531Z,14.00
2018-01-15T17:59:05.101Z,14.87
2018-01-15T18:01:35.105Z,13.60
2018-01-15T18:04:05.286Z,14.27
2018-01-15T18:06:34.569Z,14.13
2018-01-15T18:09:05.506Z,12.73
2018-01-15T18:11:34.862Z,13.03
2018-01-15T18:14:07.382Z,12.23
2018-01-15T18:16:37.357Z,11.27
2018-01-15T18:19:06.716Z,11.47
2018-01-15T18:21:36.282Z,9.80
2018-01-15T18:24:11.824Z,11.60
2018-01-15T18:26:45.438Z,11.50
2018-01-15T18:29:14.927Z,59.17
2018-01-15T18:31:44.092Z,11.00
2018-01-15T18:34:16.935Z,12.00
2018-01-15T18:36:46.782Z,11.77
2018-01-15T18:39:16.005Z,12.23
2018-01-15T18:41:45.182Z,12.47
2018-01-15T18:44:15.856Z,10.43
2018-01-15T18:46:45.034Z,10.47
2018-01-15T18:49:14.727Z,10.53
2018-01-15T18:51:44.256Z,9.83
2018-01-15T18:54:19.068Z,10.63
2018-01-15T18:56:54.958Z,10.40
2018-01-15T18:59:31.433Z,9.50
2018-01-15T19:02:08.684Z,9.10
2018-01-15T19:04:38.307Z,9.07
2018-01-15T19:07:07.504Z,7.93
2018-01-15T19:09:36.631Z,8.90
2018-01-15T19:12:06.248Z,8.93
2018-01-15T19:14:35.680Z,7.23
2018-01-15T19:17:05.277Z,7.57
2018-01-15T19:19:34.417Z,7.53
2018-01-15T19:22:07.287Z,8.00
2018-01-15T19:24:36.471Z,6.83
2018-01-15T19:27:05.857Z,7.80
2018-01-15T19:29:35.122Z,6.10
2018-01-15T19:32:06.068Z,7.20
2018-01-15T19:34:35.383Z,7.27
2018-01-15T19:37:06.317Z,7.93
2018-01-15T19:39:35.563Z,6.70
2018-01-15T19:42:05.552Z,7.67
2018-01-15T19:44:39.066Z,5.93
2018-01-15T19:47:13.267Z,5.33
2018-01-15T19:50:49.778Z,5.40
2018-01-15T19:55:25.481Z,5.70
2018-01-15T19:57:59.617Z,5.80
2018-01-15T20:02:39.226Z,6.57
2018-01-15T20:05:13.653Z,5.80
2018-01-15T20:07:47.715Z,5.50
2018-01-15T20:10:52.241Z,5.47
2018-01-15T20:13:21.654Z,5.40
2018-01-15T20:15:51.299Z,5.20
2018-01-15T20:18:20.458Z,5.37
2018-01-15T20:20:49.677Z,5.17
2018-01-15T20:23:18.936Z,4.97
2018-01-15T20:25:48.024Z,5.00
2018-01-15T20:28:17.201Z,5.07
2018-01-15T20:30:46.607Z,4.90
2018-01-15T20:33:16.295Z,4.90
2018-01-15T20:35:45.427Z,5.13
2018-01-15T20:38:15.135Z,4.67
2018-01-15T20:40:44.375Z,6.17
2018-01-15T20:43:13.606Z,4.80
2018-01-15T20:45:43.081Z,4.83
2018-01-15T20:48:12.190Z,4.70
2018-01-15T20:50:51.383Z,5.00
2018-01-15T20:53:21.277Z,5.30
2018-01-15T20:55:50.457Z,4.70
2018-01-15T20:58:19.601Z,4.57
2018-01-15T21:00:49.735Z,4.87
2018-01-15T21:03:18.867Z,5.17
2018-01-15T21:05:48.174Z,4.83
2018-01-15T21:08:17.870Z,5.93
2018-01-15T21:10:47.077Z,4.50
2018-01-15T21:13:17.308Z,6.17
2018-01-15T21:15:46.448Z,6.27
2018-01-15T21:18:15.602Z,5.17
2018-01-15T21:20:44.691Z,4.47
2018-01-15T21:23:14.167Z,5.50
2018-01-15T21:25:43.379Z,4.50
2018-01-15T21:28:12.672Z,4.17
2018-01-15T21:30:42.495Z,4.60
2018-01-15T21:33:12.049Z,5.50
2018-01-15T21:36:00.201Z,4.20
2018-01-15T21:38:32.514Z,4.97
2018-01-15T21:41:02.525Z,3.93
2018-01-15T21:43:37.645Z,3.60
2018-01-15T21:46:07.288Z,4.23
2018-01-15T21:48:37.902Z,4.83
2018-01-15T21:51:16.294Z,4.33
2018-01-15T21:53:45.530Z,4.23
2018-01-15T21:56:22.283Z,3.40
2018-01-15T21:58:51.797Z,4.77
2018-01-15T22:01:27.313Z,4.20
2018-01-15T22:03:59.794Z,4.63
2018-01-15T22:06:30.532Z,5.03
2018-01-15T22:09:07.229Z,5.27
2018-01-15T22:11:42.473Z,6.27
2018-01-15T22:14:17.978Z,5.80
2018-01-15T22:16:47.180Z,5.77
2018-01-15T22:19:18.880Z,5.40
2018-01-15T22:21:48.142Z,5.40
2018-01-15T22:24:17.281Z,4.07
2018-01-15T22:26:46.915Z,4.03
2018-01-15T22:29:16.055Z,3.77
2018-01-15T22:31:45.205Z,3.80
2018-01-15T22:34:14.724Z,3.20
2018-01-15T22:36:43.935Z,3.90
2018-01-15T22:39:13.107Z,3.57
2018-01-15T22:41:42.770Z,2.93
2018-01-15T22:44:12.026Z,4.00
2018-01-15T22:46:41.199Z,4.03
2018-01-15T22:49:10.919Z,4.13
2018-01-15T22:51:40.178Z,3.23
2018-01-15T22:54:09.425Z,2.50
2018-01-15T22:56:38.842Z,3.80
2018-01-15T22:59:08.798Z,3.80
2018-01-15T23:01:37.936Z,3.53
2018-01-15T23:04:07.362Z,3.00
2018-01-15T23:06:36.510Z,2.73
2018-01-15T23:09:06.000Z,2.30
2018-01-15T23:11:35.167Z,2.40
2018-01-15T23:14:05.259Z,1.80
2018-01-15T23:16:34.395Z,2.00
2018-01-15T23:19:04.654Z,2.00
2018-01-15T23:21:33.896Z,2.40
2018-01-15T23:24:04.930Z,2.20
2018-01-15T23:30:06.169Z,2.20
2018-01-15T23:32:35.577Z,2.47
2018-01-15T23:35:05.061Z,2.20
2018-01-15T23:37:34.200Z,2.10
2018-01-15T23:40:04.976Z,2.63
2018-01-15T23:42:35.249Z,2.20
2018-01-15T23:45:05.278Z,2.00
2018-01-15T23:47:35.927Z,2.07
2018-01-15T23:50:06.740Z,2.20
2018-01-15T23:52:37.105Z,2.00
2018-01-15T23:55:08.071Z,1.63
2018-01-15T23:57:38.605Z,2.07
